Time;durP1;ratioP1;P1;durP2;ratioP2;P2;SDS_P1;SDS_P2;PMS_P1;PMS_P2;Temp;Humidity;BMP_temperature;BMP_pressure;BME280_temperature;BME280_humidity;BME280_pressure;Samples;Min_cycle;Max_cycle;Signal;HPM_P1;HPM_P2
2024/02/16 00:01:01;;;;;;;6.05;4.13;;;;;;;10.02;100.00;101220.13;5014107;28;20138;-73
2024/02/16 00:03:26;;;;;;;;;;;;;;;9.96;100.00;101216.63;5015898;28;20036;-73
2024/02/16 00:05:52;;;;;;;6.50;3.78;;;;;;;9.93;100.00;101211.78;5019590;28;19917;-78
2024/02/16 00:08:20;;;;;;;6.55;4.55;;;;;;;9.93;100.00;101198.41;5022027;28;20119;-73
2024/02/16 00:10:46;;;;;;;6.47;3.65;;;;;;;9.92;100.00;101198.66;5024451;28;20022;-73
2024/02/16 00:13:12;;;;;;;11.73;4.18;;;;;;;9.90;100.00;101196.22;5017707;28;20468;-74
2024/02/16 00:15:38;;;;;;;5.78;3.45;;;;;;;9.91;100.00;101197.84;5013832;28;20394;-73
2024/02/16 00:18:05;;;;;;;9.25;4.30;;;;;;;9.90;100.00;101195.44;5015561;28;20030;-74
2024/02/16 00:20:31;;;;;;;5.18;3.60;;;;;;;9.89;100.00;101191.94;5016771;28;20459;-73
2024/02/16 00:22:57;;;;;;;6.97;3.88;;;;;;;9.87;100.00;101193.25;4998944;28;20572;-74
2024/02/16 00:25:23;;;;;;;6.28;3.30;;;;;;;9.87;100.00;101186.03;5011084;28;20121;-73
2024/02/16 00:27:52;;;;;;;7.38;3.50;;;;;;;9.84;100.00;101181.19;5021452;28;20068;-73
2024/02/16 00:30:19;;;;;;;6.57;3.65;;;;;;;9.81;100.00;101168.31;5022843;28;20059;-73
2024/02/16 00:32:45;;;;;;;6.30;3.45;;;;;;;9.82;100.00;101172.59;5022282;28;20041;-72
2024/02/16 00:35:11;;;;;;;5.88;3.70;;;;;;;9.81;100.00;101160.28;4998844;28;20038;-73
2024/02/16 00:37:37;;;;;;;5.70;3.22;;;;;;;9.82;100.00;101168.09;5023770;28;20099;-73
2024/02/16 00:40:04;;;;;;;6.90;3.25;;;;;;;9.80;100.00;101164.84;5025578;28;20120;-73
2024/02/16 00:42:31;;;;;;;5.82;3.15;;;;;;;9.81;100.00;101161.09;5032081;28;20415;-73
2024/02/16 00:44:57;;;;;;;8.32;3.20;;;;;;;9.81;100.00;101149.59;5005961;28;20037;-73
2024/02/16 00:47:23;;;;;;;4.38;2.63;;;;;;;9.82;100.00;101151.19;5016760;28;20041;-73
2024/02/16 00:49:49;;;;;;;7.30;3.22;;;;;;;9.84;100.00;101143.75;5005876;28;20053;-73
2024/02/16 00:52:15;;;;;;;7.10;3.53;;;;;;;9.82;100.00;101140.50;5017072;28;20744;-73
2024/02/16 00:54:41;;;;;;;5.72;3.20;;;;;;;9.82;100.00;101151.19;5023279;28;20099;-73
2024/02/16 00:57:06;;;;;;;9.20;3.20;;;;;;;9.79;100.00;101151.72;5021145;28;20694;-74
2024/02/16 00:59:32;;;;;;;6.40;3.40;;;;;;;9.79;100.00;101149.03;5018318;28;20091;-73
2024/02/16 01:01:58;;;;;;;4.38;2.75;;;;;;;9.75;100.00;101151.41;5020765;28;20111;-73
2024/02/16 01:04:23;;;;;;;5.70;2.95;;;;;;;9.74;100.00;101151.66;5004301;28;20315;-72
2024/02/16 01:06:49;;;;;;;5.40;2.70;;;;;;;9.72;100.00;101141.22;5016462;28;20726;-72
2024/02/16 01:09:15;;;;;;;5.43;3.13;;;;;;;9.70;100.00;101143.34;5013325;28;20494;-72
2024/02/16 01:11:41;;;;;;;5.07;2.72;;;;;;;9.73;100.00;101128.66;5000959;28;20919;-73
2024/02/16 01:14:07;;;;;;;;;;;;;;;9.72;100.00;101135.06;5019279;28;20040;-73
2024/02/16 01:16:33;;;;;;;7.15;2.63;;;;;;;9.71;100.00;101128.13;5000890;28;19916;-73
2024/02/16 01:18:58;;;;;;;3.97;2.30;;;;;;;9.71;100.00;101133.47;5014230;28;20053;-72
2024/02/16 01:21:24;;;;;;;6.95;2.72;;;;;;;9.68;100.00;101129.41;5015090;28;20727;-73
2024/02/16 01:23:50;;;;;;;3.67;2.30;;;;;;;9.68;100.00;101141.97;5020495;28;20516;-72
2024/02/16 01:26:15;;;;;;;7.45;3.15;;;;;;;9.65;100.00;101142.50;5020938;28;20033;-73
2024/02/16 01:28:41;;;;;;;7.90;2.78;;;;;;;9.63;100.00;101149.97;5011114;28;20033;-72
2024/02/16 01:31:09;;;;;;;4.70;2.80;;;;;;;9.63;100.00;101136.59;5014245;28;20037;-75
2024/02/16 01:33:37;;;;;;;7.57;2.63;;;;;;;9.61;100.00;101152.06;5014681;28;20025;-72
2024/02/16 01:36:03;;;;;;;3.17;2.40;;;;;;;9.58;100.00;101140.84;5016228;28;20029;-73
2024/02/16 01:38:29;;;;;;;5.10;2.80;;;;;;;9.55;100.00;101136.00;5003921;28;20530;-73
2024/02/16 01:40:55;;;;;;;4.78;2.75;;;;;;;9.52;100.00;101130.34;5017564;28;20108;-72
2024/02/16 01:43:22;;;;;;;7.07;2.92;;;;;;;9.49;100.00;101136.22;5014967;28;20494;-73
2024/02/16 01:45:49;;;;;;;3.70;2.47;;;;;;;9.48;100.00;101127.38;5011986;28;20061;-73
2024/02/16 01:48:15;;;;;;;5.55;3.10;;;;;;;9.47;100.00;101127.63;5020426;28;20080;-73
2024/02/16 01:50:45;;;;;;;6.35;2.88;;;;;;;9.45;100.00;101119.84;5018452;28;20029;-72
2024/02/16 01:53:18;;;;;;;5.95;3.42;;;;;;;9.44;100.00;101112.09;5016899;28;20065;-72
2024/02/16 01:55:47;;;;;;;6.07;2.83;;;;;;;9.42;100.00;101119.56;5018787;28;20037;-73
2024/02/16 01:58:13;;;;;;;5.47;3.10;;;;;;;9.43;100.00;101119.31;5011623;28;20049;-74
2024/02/16 02:00:40;;;;;;;5.18;2.97;;;;;;;9.45;100.00;101116.38;5024240;28;20029;-74
2024/02/16 02:03:06;;;;;;;4.28;2.83;;;;;;;9.45;100.00;101113.69;5019986;28;20799;-72
2024/02/16 02:05:32;;;;;;;5.00;2.85;;;;;;;9.44;100.00;101102.19;5019387;28;20037;-73
2024/02/16 02:07:58;;;;;;;;;;;;;;;9.44;100.00;101104.06;4996274;28;20902;-73
2024/02/16 02:10:25;;;;;;;5.60;3.00;;;;;;;9.43;100.00;101100.59;5020842;28;19972;-72
2024/02/16 02:12:51;;;;;;;4.60;2.75;;;;;;;9.44;100.00;101094.19;5014334;28;20065;-73
2024/02/16 02:15:19;;;;;;;6.15;3.55;;;;;;;9.44;100.00;101090.69;5003154;28;20111;-72
2024/02/16 02:17:45;;;;;;;9.13;3.17;;;;;;;9.42;100.00;101082.13;5016893;28;20080;-74
2024/02/16 02:20:10;;;;;;;7.68;3.60;;;;;;;9.42;100.00;101080.28;5005297;28;20132;-72
2024/02/16 02:22:39;;;;;;;4.65;2.72;;;;;;;9.41;100.00;101075.16;5022300;28;20082;-72
2024/02/16 02:25:05;;;;;;;7.05;2.85;;;;;;;9.39;100.00;101078.09;5005167;28;20026;-74
2024/02/16 02:27:31;;;;;;;4.03;2.70;;;;;;;9.39;100.00;101075.41;5020882;28;20042;-73
2024/02/16 02:29:58;;;;;;;5.38;3.13;;;;;;;9.39;100.00;101071.94;5022371;28;20044;-73
2024/02/16 02:32:24;;;;;;;10.65;3.15;;;;;;;9.36;100.00;101067.91;5024023;28;20498;-74
2024/02/16 02:34:49;;;;;;;6.38;3.00;;;;;;;9.39;100.00;101069.25;5004441;28;20030;-73
2024/02/16 02:37:16;;;;;;;4.32;3.03;;;;;;;9.35;100.00;101066.31;5022409;28;20108;-73
2024/02/16 02:39:43;;;;;;;6.20;2.92;;;;;;;9.36;100.00;101070.59;5022804;28;20124;-73
2024/02/16 02:42:10;;;;;;;8.65;3.13;;;;;;;9.35;100.00;101063.63;5014675;28;20038;-73
2024/02/16 02:44:36;;;;;;;6.20;3.28;;;;;;;9.35;100.00;101066.31;5022114;28;20039;-73
2024/02/16 02:47:02;;;;;;;6.45;2.97;;;;;;;9.35;100.00;101055.63;5014231;28;20041;-73
2024/02/16 02:49:27;;;;;;;5.65;3.20;;;;;;;9.35;100.00;101060.13;5018068;28;20033;-73
2024/02/16 02:51:53;;;;;;;4.38;3.00;;;;;;;9.33;100.00;101059.56;5014797;28;20108;-72
2024/02/16 02:54:19;;;;;;;5.40;2.80;;;;;;;9.30;100.00;101050.22;5022287;28;20061;-72
2024/02/16 02:56:44;;;;;;;6.28;2.85;;;;;;;9.28;100.00;101055.81;5021590;28;20084;-73
2024/02/16 02:59:10;;;;;;;5.85;2.90;;;;;;;9.28;100.00;101044.31;5002528;28;20657;-73
2024/02/16 03:01:36;;;;;;;6.00;2.90;;;;;;;9.28;100.00;101041.66;5023445;28;20033;-73
2024/02/16 03:04:03;;;;;;;8.77;3.00;;;;;;;9.29;100.00;101040.59;5003642;28;20032;-73
2024/02/16 03:06:29;;;;;;;7.57;3.30;;;;;;;9.28;100.00;101034.44;5004083;28;20499;-73
2024/02/16 03:08:54;;;;;;;6.93;2.88;;;;;;;9.27;100.00;101029.31;5020162;28;20091;-73
2024/02/16 03:11:20;;;;;;;4.88;3.22;;;;;;;9.29;100.00;101027.22;5018380;28;20096;-73
2024/02/16 03:13:46;;;;;;;4.88;2.90;;;;;;;9.30;100.00;101026.16;5003598;28;20030;-73
2024/02/16 03:16:12;;;;;;;6.18;3.22;;;;;;;9.31;100.00;101022.41;5016516;28;20029;-73
2024/02/16 03:18:38;;;;;;;7.13;3.03;;;;;;;9.32;100.00;101018.69;5017393;28;20041;-73
2024/02/16 03:21:04;;;;;;;5.20;2.78;;;;;;;9.30;100.00;101021.63;5018396;28;20034;-72
2024/02/16 03:23:30;;;;;;;5.93;3.22;;;;;;;9.32;100.00;101017.88;4987203;28;20656;-73
2024/02/16 03:25:56;;;;;;;6.38;3.17;;;;;;;9.31;100.00;101017.06;5021233;28;20561;-73
2024/02/16 03:28:22;;;;;;;;;;;;;;;9.29;100.00;101013.88;5019440;28;20049;-73
2024/02/16 03:30:48;;;;;;;7.22;3.20;;;;;;;9.27;100.00;101010.63;5021526;28;19913;-73
2024/02/16 03:33:14;;;;;;;5.30;2.80;;;;;;;9.28;100.00;101009.59;5021041;28;20162;-72
2024/02/16 03:35:40;;;;;;;7.65;3.15;;;;;;;9.29;100.00;101005.84;5024740;28;20037;-72
2024/02/16 03:38:05;;;;;;;6.10;3.03;;;;;;;9.28;100.00;100996.22;5017429;28;20064;-72
2024/02/16 03:40:31;;;;;;;6.50;3.10;;;;;;;9.27;100.00;101008.75;5023623;28;20112;-73
2024/02/16 03:42:57;;;;;;;6.75;3.47;;;;;;;9.25;100.00;100996.72;5022069;28;20095;-73
2024/02/16 03:45:23;;;;;;;8.40;3.33;;;;;;;9.24;100.00;101000.44;5007884;28;20041;-73
2024/02/16 03:47:52;;;;;;;;;;;;;;;9.26;100.00;101001.00;5003674;28;20061;-73
2024/02/16 03:50:18;;;;;;;5.30;2.97;;;;;;;9.26;100.00;101001.00;5024042;28;19912;-73
2024/02/16 03:52:44;;;;;;;4.32;2.72;;;;;;;9.26;100.00;101001.00;5023801;28;20126;-71
2024/02/16 03:55:10;;;;;;;3.83;2.78;;;;;;;9.25;100.00;101000.19;5016608;28;20113;-73
2024/02/16 03:57:37;;;;;;;8.77;2.95;;;;;;;9.26;100.00;101007.13;5019042;28;20507;-72
2024/02/16 04:00:05;;;;;;;4.35;2.40;;;;;;;9.29;100.00;101003.16;5016841;28;20030;-73
2024/02/16 04:02:39;;;;;;;4.53;2.60;;;;;;;9.27;100.00;100992.72;5021989;28;20040;-73
2024/02/16 04:05:05;;;;;;;8.73;2.60;;;;;;;9.28;100.00;101001.56;5019463;28;20033;-72
2024/02/16 04:07:30;;;;;;;3.75;2.42;;;;;;;9.27;100.00;101003.41;5018063;28;20034;-72
2024/02/16 04:09:56;;;;;;;4.95;2.67;;;;;;;9.27;100.00;100997.25;5018996;28;20513;-73
2024/02/16 04:12:21;;;;;;;5.35;2.58;;;;;;;9.26;100.00;100999.13;5001170;28;20045;-73
2024/02/16 04:14:47;;;;;;;3.88;2.28;;;;;;;9.24;100.00;100989.75;5016383;28;20033;-72
2024/02/16 04:17:12;;;;;;;4.50;2.38;;;;;;;9.25;100.00;100992.16;5022391;28;20269;-73
2024/02/16 04:19:38;;;;;;;5.47;2.40;;;;;;;9.25;100.00;100994.03;5006376;28;20033;-73
2024/02/16 04:22:04;;;;;;;6.82;2.40;;;;;;;9.24;100.00;100982.53;5018702;28;20032;-72
2024/02/16 04:24:29;;;;;;;5.80;2.80;;;;;;;9.25;100.00;100980.69;5021499;28;20041;-73
2024/02/16 04:26:55;;;;;;;3.95;2.03;;;;;;;9.26;100.00;100979.59;5013943;28;20518;-72
2024/02/16 04:29:21;;;;;;;3.67;2.33;;;;;;;9.27;100.00;100998.06;5020919;28;21026;-73
2024/02/16 04:31:47;;;;;;;4.57;2.00;;;;;;;9.27;100.00;100989.22;5015325;28;20403;-73
2024/02/16 04:34:13;;;;;;;5.63;2.20;;;;;;;9.28;100.00;100985.53;5006906;28;20040;-73
2024/02/16 04:36:39;;;;;;;6.43;2.40;;;;;;;9.28;100.00;100983.66;5016742;28;20060;-72
2024/02/16 04:39:05;;;;;;;4.72;2.15;;;;;;;9.29;100.00;100989.81;5018799;28;20068;-72
2024/02/16 04:41:31;;;;;;;;;;;;;;;9.29;100.00;100984.47;5018970;28;20037;-73
2024/02/16 04:43:58;;;;;;;3.28;1.80;;;;;;;9.29;100.00;100987.94;5018338;28;20335;-73
2024/02/16 04:46:23;;;;;;;4.72;2.20;;;;;;;9.29;100.00;100979.13;5018207;28;20453;-72
2024/02/16 04:48:49;;;;;;;3.90;2.40;;;;;;;9.30;100.00;100978.06;5019069;28;20041;-73
2024/02/16 04:51:15;;;;;;;4.93;2.20;;;;;;;9.31;100.00;100979.66;5015582;28;20030;-73
2024/02/16 04:53:41;;;;;;;6.20;2.33;;;;;;;9.34;100.00;100976.47;5016000;28;20041;-73
2024/02/16 04:56:07;;;;;;;;;;;;;;;9.34;100.00;100976.47;5012300;28;20108;-73
2024/02/16 04:58:32;;;;;;;4.80;2.28;;;;;;;9.37;100.00;100978.66;5020361;28;19916;-72
2024/02/16 05:00:58;;;;;;;3.33;1.83;;;;;;;9.39;100.00;100970.38;5020958;28;20467;-72
2024/02/16 05:03:24;;;;;;;5.13;2.08;;;;;;;9.40;100.00;100971.97;5023475;28;20056;-72
2024/02/16 05:05:52;;;;;;;5.10;2.03;;;;;;;9.39;100.00;100971.16;5016802;28;20041;-73
2024/02/16 05:08:17;;;;;;;7.07;1.90;;;;;;;9.41;100.00;100971.69;5017496;28;20042;-72
2024/02/16 05:10:43;;;;;;;4.40;2.20;;;;;;;9.42;100.00;100965.31;5014340;28;20035;-72
2024/02/16 05:13:08;;;;;;;8.20;2.70;;;;;;;9.44;100.00;100962.38;5003311;28;20064;-73
2024/02/16 05:15:34;;;;;;;4.38;2.17;;;;;;;9.44;100.00;100963.19;5018799;28;20033;-72
2024/02/16 05:18:00;;;;;;;7.45;2.03;;;;;;;9.46;100.00;100965.59;5016338;28;20029;-72
2024/02/16 05:20:25;;;;;;;3.95;2.22;;;;;;;9.46;100.00;100966.41;5014240;28;20406;-73
2024/02/16 05:22:51;;;;;;;3.53;1.92;;;;;;;9.45;100.00;100954.09;5016714;28;20037;-73
2024/02/16 05:25:18;;;;;;;5.45;1.90;;;;;;;9.48;100.00;100964.31;5010591;28;20030;-73
2024/02/16 05:27:44;;;;;;;7.95;2.33;;;;;;;9.48;100.00;100958.97;5019259;28;20029;-73
2024/02/16 05:30:14;;;;;;;8.23;2.10;;;;;;;9.49;100.00;100959.75;5025479;28;20037;-72
2024/02/16 05:32:41;;;;;;;3.70;2.03;;;;;;;9.50;100.00;100956.81;5015945;28;20029;-73
2024/02/16 05:35:11;;;;;;;3.38;1.90;;;;;;;9.51;100.00;100946.94;5015474;28;20049;-73
2024/02/16 05:37:44;;;;;;;3.95;2.10;;;;;;;9.50;100.00;100953.34;5017282;28;20494;-72
2024/02/16 05:40:30;;;;;;;4.43;1.80;;;;;;;9.51;100.00;100947.72;5012507;28;20068;-72
2024/02/16 05:42:57;;;;;;;4.80;1.92;;;;;;;9.55;100.00;100948.84;5018203;28;20033;-72
2024/02/16 05:45:23;;;;;;;4.68;1.88;;;;;;;9.54;100.00;100941.84;5016266;28;20033;-72
2024/02/16 05:47:50;;;;;;;4.60;1.73;;;;;;;9.55;100.00;100946.16;5019319;28;20689;-72
2024/02/16 05:50:17;;;;;;;3.30;1.70;;;;;;;9.55;100.00;100943.50;5017700;28;20056;-72
2024/02/16 05:52:43;;;;;;;5.45;2.00;;;;;;;9.52;100.00;100944.00;5018968;28;20029;-72
2024/02/16 05:55:10;;;;;;;6.20;2.00;;;;;;;9.52;100.00;100944.00;5013259;28;20029;-72
2024/02/16 05:57:37;;;;;;;3.30;1.98;;;;;;;9.53;100.00;100947.47;5016123;28;20033;-72
2024/02/16 06:00:04;;;;;;;4.10;1.75;;;;;;;9.50;100.00;100956.81;5022102;28;20037;-71
2024/02/16 06:02:33;;;;;;;5.93;2.35;;;;;;;9.50;100.00;100951.47;5014774;28;20112;-73
2024/02/16 06:05:03;;;;;;;4.95;1.83;;;;;;;9.49;100.00;100957.88;5014534;28;20058;-72
2024/02/16 06:07:29;;;;;;;6.05;2.13;;;;;;;9.49;100.00;100955.22;5014326;28;20033;-71
2024/02/16 06:09:58;;;;;;;5.60;1.80;;;;;;;9.47;100.00;100957.31;5020648;28;20033;-73
2024/02/16 06:12:24;;;;;;;3.80;1.70;;;;;;;9.46;100.00;100962.94;5010443;28;20116;-72
2024/02/16 06:14:49;;;;;;;2.45;1.70;;;;;;;9.45;100.00;100958.66;5023309;28;20491;-72
2024/02/16 06:17:16;;;;;;;4.65;1.70;;;;;;;9.44;100.00;100957.84;5019785;28;20028;-73
2024/02/16 06:19:42;;;;;;;3.70;2.15;;;;;;;9.43;100.00;100961.59;4988084;28;20052;-72
2024/02/16 06:22:08;;;;;;;;;;;;;;;9.42;100.00;100959.97;5016254;28;20033;-72
2024/02/16 06:24:34;;;;;;;3.10;2.03;;;;;;;9.39;100.00;100960.47;5015754;28;19913;-72
2024/02/16 06:27:00;;;;;;;3.95;1.70;;;;;;;9.38;100.00;100950.84;5023142;28;20040;-72
2024/02/16 06:29:26;;;;;;;5.82;1.75;;;;;;;9.38;100.00;100950.84;5017810;28;20116;-72
2024/02/16 06:31:52;;;;;;;4.47;1.80;;;;;;;9.38;100.00;100958.88;5019352;28;20076;-72
2024/02/16 06:34:18;;;;;;;3.33;1.85;;;;;;;9.35;100.00;100954.03;5019115;28;20056;-72
2024/02/16 06:36:43;;;;;;;5.30;2.08;;;;;;;9.35;100.00;100948.69;5017295;28;20534;-72
2024/02/16 06:39:10;;;;;;;2.78;1.55;;;;;;;9.35;100.00;100948.69;5014606;28;20109;-72
2024/02/16 06:41:37;;;;;;;4.07;1.88;;;;;;;9.33;100.00;100950.81;5016169;28;20038;-73
2024/02/16 06:44:04;;;;;;;3.53;1.80;;;;;;;9.30;100.00;100962.81;5018025;28;20033;-72
2024/02/16 06:46:30;;;;;;;3.42;1.85;;;;;;;9.29;100.00;100971.09;5020601;28;20130;-72
2024/02/16 06:48:56;;;;;;;3.40;1.67;;;;;;;9.26;100.00;100958.22;5021329;28;20030;-72
2024/02/16 06:51:26;;;;;;;3.42;1.70;;;;;;;9.24;100.00;100958.50;5008025;28;20042;-73
2024/02/16 06:53:52;;;;;;;3.55;1.85;;;;;;;9.23;100.00;100961.44;4984316;28;20041;-72
2024/02/16 06:56:19;;;;;;;;;;;;;;;9.22;100.00;100967.84;5021181;28;20057;-72
2024/02/16 06:58:45;;;;;;;7.95;2.55;;;;;;;9.21;100.00;100966.19;5023045;28;20012;-71
2024/02/16 07:01:15;;;;;;;3.85;1.80;;;;;;;9.20;100.00;100961.91;5023322;28;20490;-72
2024/02/16 07:03:41;;;;;;;6.43;2.10;;;;;;;9.20;100.00;100967.25;5015636;28;20037;-72
2024/02/16 07:06:09;;;;;;;3.45;1.70;;;;;;;9.18;100.00;100959.50;5025356;28;20025;-72
2024/02/16 07:08:41;;;;;;;2.97;1.98;;;;;;;9.18;100.00;100964.06;5020505;28;20226;-72
2024/02/16 07:11:07;;;;;;;3.13;1.90;;;;;;;9.16;100.00;100958.16;5010355;28;20034;-72
2024/02/16 07:13:37;;;;;;;4.03;2.40;;;;;;;9.16;100.00;100976.88;5019268;28;20106;-72
2024/02/16 07:16:03;;;;;;;3.38;1.65;;;;;;;9.15;100.00;100975.25;5022477;28;20037;-72
2024/02/16 07:18:30;;;;;;;3.92;1.90;;;;;;;9.14;100.00;100982.44;5018026;28;20060;-71
2024/02/16 07:20:56;;;;;;;3.45;1.65;;;;;;;9.14;100.00;100976.28;5017637;28;20514;-72
2024/02/16 07:23:22;;;;;;;4.70;2.03;;;;;;;9.14;100.00;100978.97;5005007;28;20056;-73
2024/02/16 07:25:48;;;;;;;3.38;1.90;;;;;;;9.13;100.00;100978.16;5018172;28;20033;-72
2024/02/16 07:28:14;;;;;;;3.72;1.65;;;;;;;9.12;100.00;100983.75;5018536;28;20042;-72
2024/02/16 07:30:40;;;;;;;;;;;;;;;9.12;100.00;100981.91;5023046;28;20033;-72
2024/02/16 07:33:07;;;;;;;4.15;2.03;;;;;;;9.12;100.00;100981.09;5019084;28;19957;-72
2024/02/16 07:35:37;;;;;;;3.78;1.90;;;;;;;9.13;100.00;100977.34;5013763;28;20045;-72
2024/02/16 07:38:04;;;;;;;4.45;1.88;;;;;;;9.12;100.00;100981.91;5020426;28;20083;-72
2024/02/16 07:40:30;;;;;;;5.80;1.77;;;;;;;9.13;100.00;100982.69;5013158;28;20045;-73
2024/02/16 07:42:56;;;;;;;3.38;1.90;;;;;;;9.14;100.00;100981.63;5020314;28;20061;-72
2024/02/16 07:45:22;;;;;;;4.82;2.10;;;;;;;9.15;100.00;100980.59;5012680;28;20050;-72
2024/02/16 07:47:48;;;;;;;3.22;1.88;;;;;;;9.15;100.00;100972.59;5017545;28;20388;-72
2024/02/16 07:50:20;;;;;;;6.88;2.10;;;;;;;9.20;100.00;100981.44;5015946;28;20033;-71
2024/02/16 07:52:45;;;;;;;3.70;2.10;;;;;;;9.25;100.00;100980.69;5017172;28;20079;-72
2024/02/16 07:55:11;;;;;;;5.55;2.10;;;;;;;9.27;100.00;100983.88;5020734;28;20634;-72
2024/02/16 07:57:37;;;;;;;4.38;2.22;;;;;;;9.29;100.00;100997.81;5003130;28;20071;-72
2024/02/16 08:00:05;;;;;;;4.30;2.03;;;;;;;9.30;100.00;100988.75;5019916;28;20045;-72
2024/02/16 08:02:31;;;;;;;5.22;1.90;;;;;;;9.32;100.00;100994.63;5019787;28;20029;-71
2024/02/16 08:04:56;;;;;;;3.15;1.75;;;;;;;9.33;100.00;100990.91;5016630;28;20034;-74
2024/02/16 08:07:22;;;;;;;4.43;1.80;;;;;;;9.37;100.00;100988.53;5019258;28;20671;-71
2024/02/16 08:09:49;;;;;;;3.35;1.92;;;;;;;9.39;100.00;100979.19;5018225;28;20041;-72
2024/02/16 08:12:14;;;;;;;;;;;;;;;9.43;100.00;100982.16;5020895;28;20490;-71
2024/02/16 08:14:41;;;;;;;3.78;2.20;;;;;;;9.46;100.00;100977.09;5018639;28;19924;-73
2024/02/16 08:17:07;;;;;;;3.35;1.67;;;;;;;9.52;100.00;100980.63;4985737;28;20030;-72
2024/02/16 08:19:34;;;;;;;3.88;1.63;;;;;;;9.56;100.00;100966.50;5014847;28;20569;-73
2024/02/16 08:22:01;;;;;;;3.25;1.70;;;;;;;9.60;100.00;100956.06;5020432;28;20029;-72
2024/02/16 08:24:27;;;;;;;3.08;1.75;;;;;;;9.64;100.00;100961.72;4984080;28;20454;-72
2024/02/16 08:26:52;;;;;;;4.85;2.25;;;;;;;9.66;100.00;100964.94;5019616;28;20083;-72
2024/02/16 08:29:20;;;;;;;6.60;1.83;;;;;;;9.68;100.00;100952.09;5020658;28;20069;-72
2024/02/16 08:31:49;;;;;;;3.75;2.00;;;;;;;9.68;100.00;100954.78;5017210;28;20153;-73
2024/02/16 08:34:14;;;;;;;3.58;1.88;;;;;;;9.66;100.00;100948.88;5002273;28;20125;-72
2024/02/16 08:36:44;;;;;;;5.03;2.05;;;;;;;9.68;100.00;100941.41;5019215;28;20443;-72
2024/02/16 08:39:11;;;;;;;5.25;1.77;;;;;;;9.67;100.00;100943.28;5014816;28;20487;-73
2024/02/16 08:41:37;;;;;;;4.03;1.92;;;;;;;9.67;100.00;100956.66;5021529;28;20033;-73
2024/02/16 08:44:04;;;;;;;3.85;2.00;;;;;;;9.68;100.00;100954.78;5020737;28;20410;-72
2024/02/16 08:46:30;;;;;;;3.67;1.80;;;;;;;9.69;100.00;100964.44;5016885;28;20037;-73
2024/02/16 08:48:56;;;;;;;3.75;1.55;;;;;;;9.69;100.00;100967.13;5019908;28;20040;-72
2024/02/16 08:51:21;;;;;;;4.28;1.88;;;;;;;9.69;100.00;100964.44;5017815;28;20033;-73
2024/02/16 08:53:47;;;;;;;3.83;2.15;;;;;;;9.69;100.00;100970.59;5023788;28;20721;-72
2024/02/16 08:56:12;;;;;;;3.22;1.48;;;;;;;9.67;100.00;100967.34;5001880;28;20040;-72
2024/02/16 08:58:38;;;;;;;4.80;2.25;;;;;;;9.67;100.00;100971.88;5019518;28;20365;-72
2024/02/16 09:01:04;;;;;;;;;;;;;;;9.66;100.00;100964.94;5017100;28;20084;-72
2024/02/16 09:03:36;;;;;;;3.08;1.88;;;;;;;9.65;100.00;100963.34;5021490;28;20370;-72
2024/02/16 09:06:03;;;;;;;4.43;1.98;;;;;;;9.68;100.00;100962.81;5019043;28;20037;-73
2024/02/16 09:08:32;;;;;;;3.90;1.83;;;;;;;9.72;100.00;100966.59;5017693;28;20037;-71
2024/02/16 09:10:59;;;;;;;6.07;2.15;;;;;;;9.76;100.00;100959.66;5019278;28;20033;-73
2024/02/16 09:13:25;;;;;;;2.78;1.95;;;;;;;9.79;100.00;100956.47;5018384;28;20044;-73
2024/02/16 09:15:51;;;;;;;4.72;3.90;;;;;;;9.82;100.00;100953.25;5023637;23;20017;-71
2024/02/16 09:18:17;;;;;;;;;;;;;;;9.87;100.00;100965.88;5018535;28;20045;-72
2024/02/16 09:20:43;;;;;;;3.63;1.98;;;;;;;9.93;100.00;100959.47;5022505;28;19917;-72
2024/02/16 09:23:10;;;;;;;7.18;2.40;;;;;;;9.98;100.00;100960.31;5005955;28;20037;-73
2024/02/16 09:25:36;;;;;;;4.18;2.00;;;;;;;10.02;100.00;100949.88;5023755;28;20061;-73
2024/02/16 09:28:02;;;;;;;3.30;1.45;;;;;;;10.08;100.00;100962.22;5023337;28;20121;-73
2024/02/16 09:30:29;;;;;;;3.55;1.70;;;;;;;10.10;100.00;100955.56;5020617;28;20052;-71
2024/02/16 09:32:54;;;;;;;7.68;2.45;;;;;;;10.16;100.00;100958.25;5020637;28;20044;-72
2024/02/16 09:35:20;;;;;;;5.50;1.88;;;;;;;10.18;100.00;100956.13;5018834;28;20029;-73
2024/02/16 09:37:45;;;;;;;4.70;2.05;;;;;;;10.20;100.00;100949.44;5017037;28;20065;-72
2024/02/16 09:40:15;;;;;;;5.55;1.73;;;;;;;10.25;100.00;100937.97;5020421;28;20128;-72
2024/02/16 09:42:41;;;;;;;4.30;1.73;;;;;;;10.30;100.00;100938.00;5038022;28;20029;-73
2024/02/16 09:45:09;;;;;;;8.00;2.03;;;;;;;10.36;100.00;100942.28;5022119;28;20068;-72
2024/02/16 09:47:36;;;;;;;5.55;1.60;;;;;;;10.42;100.00;100959.19;5020303;28;20025;-72
2024/02/16 09:50:02;;;;;;;3.65;1.65;;;;;;;10.47;100.00;100964.56;5022659;28;20078;-72
2024/02/16 09:52:28;;;;;;;;;;;;;;;10.51;100.00;100950.38;5017558;28;20038;-72
2024/02/16 09:54:53;;;;;;;2.67;2.00;;;;;;;10.56;100.00;100953.06;5021215;28;19913;-72
2024/02/16 09:57:19;;;;;;;5.30;2.00;;;;;;;10.62;100.00;100954.69;5020905;28;20034;-71
2024/02/16 09:59:45;;;;;;;4.15;2.10;;;;;;;10.71;100.00;100952.31;5003042;28;20034;-72
2024/02/16 10:02:11;;;;;;;2.67;1.70;;;;;;;10.79;100.00;100956.34;5021155;28;20036;-72
2024/02/16 10:04:36;;;;;;;4.03;1.45;;;;;;;10.86;100.00;100951.53;5035434;28;20037;-72
2024/02/16 10:07:03;;;;;;;2.88;1.77;;;;;;;10.92;100.00;100953.16;5020414;28;20053;-73
2024/02/16 10:09:29;;;;;;;2.85;1.55;;;;;;;11.00;100.00;100952.59;5036158;28;20045;-73
2024/02/16 10:11:55;;;;;;;3.25;1.70;;;;;;;11.06;100.00;100951.53;5020828;28;20429;-73
2024/02/16 10:14:20;;;;;;;4.63;2.00;;;;;;;11.14;100.00;100951.00;5021454;28;20529;-72
2024/02/16 10:16:48;;;;;;;3.55;1.95;;;;;;;11.23;100.00;100955.81;5021318;28;20034;-72
2024/02/16 10:19:14;;;;;;;2.72;1.40;;;;;;;11.30;100.00;100949.13;5020779;28;20060;-72
2024/02/16 10:21:40;;;;;;;;;;;;;;;11.38;100.00;100963.84;5021447;28;20041;-72
2024/02/16 10:24:08;;;;;;;2.65;1.13;;;;;;;11.46;100.00;100960.66;5025597;28;19921;-72
2024/02/16 10:26:40;;;;;;;3.90;1.48;;;;;;;11.54;100.00;100954.72;5041029;28;20106;-72
2024/02/16 10:29:09;;;;;;;5.30;1.48;;;;;;;11.61;100.00;100968.66;5021250;28;20334;-73
2024/02/16 10:31:35;;;;;;;3.47;1.50;;;;;;;11.68;100.00;100969.19;5025639;28;20380;-72
2024/02/16 10:34:05;;;;;;;3.05;1.60;;;;;;;11.75;100.00;100975.09;5024147;28;20047;-73
2024/02/16 10:36:34;;;;;;;4.05;1.50;;;;;;;11.81;100.00;100967.06;5019408;28;20034;-73
2024/02/16 10:39:05;;;;;;;2.90;1.40;;;;;;;11.87;100.00;100971.34;5020787;28;20087;-72
2024/02/16 10:41:36;;;;;;;3.22;1.58;;;;;;;11.90;100.00;100973.47;5026868;28;20048;-74
2024/02/16 10:44:04;;;;;;;4.10;1.52;;;;;;;11.91;100.00;100975.06;5021675;28;20558;-72
2024/02/16 10:46:30;;;;;;;4.55;1.60;;;;;;;11.92;100.00;100969.47;5020035;28;20045;-72
2024/02/16 10:48:56;;;;;;;4.38;1.73;;;;;;;11.96;100.00;100964.34;5019580;28;20521;-73
2024/02/16 10:51:34;;;;;;;4.25;1.73;;;;;;;11.98;100.00;100964.84;5023905;28;20111;-73
2024/02/16 10:54:01;;;;;;;3.15;1.58;;;;;;;12.01;100.00;100962.44;5007516;28;20511;-73
2024/02/16 10:56:34;;;;;;;3.08;1.70;;;;;;;12.05;100.00;100964.56;5024619;28;20115;-72
2024/02/16 10:59:02;;;;;;;2.63;1.52;;;;;;;12.09;100.00;100971.81;5025828;28;20487;-73
2024/02/16 11:01:32;;;;;;;3.65;1.38;;;;;;;12.16;100.00;100961.56;5023730;28;20041;-72
2024/02/16 11:04:03;;;;;;;3.00;1.48;;;;;;;12.21;100.00;100966.94;5024770;28;20129;-73
2024/02/16 11:06:29;;;;;;;3.03;1.40;;;;;;;12.24;100.00;100966.38;5022818;28;20076;-74
2024/02/16 11:09:01;;;;;;;3.75;1.80;;;;;;;12.29;100.00;100958.31;5024043;28;20068;-72
2024/02/16 11:11:27;;;;;;;4.05;1.60;;;;;;;12.38;100.00;100960.41;5020788;28;20073;-74
2024/02/16 11:13:55;;;;;;;4.07;1.90;;;;;;;12.51;100.00;100959.81;5023200;28;20045;-74
2024/02/16 11:16:21;;;;;;;5.95;1.60;;;;;;;12.58;100.00;100957.63;5022921;28;20041;-73
2024/02/16 11:18:48;;;;;;;;;;;;;;;12.80;100.00;100957.19;5008047;28;20033;-73
2024/02/16 11:21:17;;;;;;;5.10;1.67;;;;;;;12.97;100.00;100962.22;5020252;28;19963;-73
2024/02/16 11:23:44;;;;;;;4.35;1.60;;;;;;;13.01;100.00;100957.91;5021797;28;20513;-74